Time;durP1;ratioP1;P1;durP2;ratioP2;P2;SDS_P1;SDS_P2;PMS_P1;PMS_P2;Temp;Humidity;BMP_temperature;BMP_pressure;BME280_temperature;BME280_humidity;BME280_pressure;Samples;Min_cycle;Max_cycle;Signal;HPM_P1;HPM_P2
2024/03/23 08:04:18;;;;;;;7.53;3.20;;;22.10;61.70;;;;;;5036471;28;20502;-85
2024/03/23 08:06:45;;;;;;;9.47;3.60;;;22.00;59.80;;;;;;5055823;28;20437;-85
2024/03/23 08:09:12;;;;;;;9.90;3.90;;;22.00;59.60;;;;;;5074263;28;20440;-84
2024/03/23 08:11:39;;;;;;;8.77;3.00;;;22.00;59.80;;;;;;5075045;28;20440;-84
2024/03/23 08:14:06;;;;;;;5.70;1.60;;;22.10;59.70;;;;;;5075179;28;20804;-83
2024/03/23 08:16:33;;;;;;;7.40;2.27;;;22.10;60.60;;;;;;5075683;28;20491;-83
2024/03/23 08:19:00;;;;;;;5.47;2.10;;;22.10;62.60;;;;;;5075762;28;20531;-82
2024/03/23 08:21:26;;;;;;;6.00;2.60;;;22.20;63.30;;;;;;5074989;28;20441;-83
2024/03/23 08:23:54;;;;;;;3.93;2.20;;;22.20;63.30;;;;;;5075673;28;20472;-83
2024/03/23 08:26:20;;;;;;;7.23;2.67;;;22.20;63.30;;;;;;5075695;28;20194;-83
2024/03/23 08:28:47;;;;;;;7.50;2.67;;;22.20;63.30;;;;;;5075064;28;20802;-83
2024/03/23 08:31:14;;;;;;;16.87;9.20;;;22.20;63.30;;;;;;5073308;28;20198;-83
2024/03/23 08:33:42;;;;;;;12.90;5.80;;;22.20;63.20;;;;;;5073349;28;20535;-82
2024/03/23 08:36:12;;;;;;;12.47;5.13;;;22.10;59.20;;;;;;5073243;28;20488;-83
2024/03/23 08:38:39;;;;;;;11.40;6.40;;;22.10;59.60;;;;;;5073324;28;20484;-85
2024/03/23 08:41:07;;;;;;;10.30;6.10;;;22.00;60.20;;;;;;5073591;28;20523;-82
2024/03/23 08:43:36;;;;;;;15.53;5.87;;;22.10;61.80;;;;;;5073145;28;20472;-83
2024/03/23 08:46:05;;;;;;;5.27;2.90;;;22.20;61.40;;;;;;5074870;28;20437;-84
2024/03/23 08:48:33;;;;;;;5.43;3.23;;;22.10;62.80;;;;;;5075374;28;21022;-90
2024/03/23 08:51:01;;;;;;;7.40;3.60;;;22.10;62.80;;;;;;5075442;28;20451;-89
2024/03/23 08:53:29;;;;;;;6.80;4.20;;;22.10;62.80;;;;;;5075497;28;20556;-89
2024/03/23 08:55:55;;;;;;;7.00;5.17;;;22.10;62.90;;;;;;5075509;28;20534;-84
2024/03/23 08:58:25;;;;;;;8.40;4.93;;;22.30;63.20;;;;;;5075068;28;20437;-83
2024/03/23 09:00:51;;;;;;;9.23;4.53;;;22.30;63.30;;;;;;5074690;28;20436;-85
2024/03/23 09:03:17;;;;;;;15.87;4.90;;;22.20;62.90;;;;;;5074736;28;20436;-81
2024/03/23 09:05:43;;;;;;;7.40;4.10;;;22.10;60.10;;;;;;5074635;28;20448;-80
2024/03/23 09:08:10;;;;;;;9.70;3.90;;;22.10;60.00;;;;;;5074569;28;20459;-81
2024/03/23 09:10:38;;;;;;;9.13;4.07;;;22.10;59.70;;;;;;5074515;28;20201;-81
2024/03/23 09:13:05;;;;;;;12.03;4.00;;;22.10;59.80;;;;;;5074408;28;20452;-81
2024/03/23 09:15:33;;;;;;;7.50;4.20;;;22.10;60.30;;;;;;5074285;28;20483;-81
2024/03/23 09:18:00;;;;;;;7.90;3.80;;;22.10;60.60;;;;;;5072840;28;20452;-80
2024/03/23 09:20:27;;;;;;;10.70;3.10;;;22.10;60.90;;;;;;5073530;28;20440;-82
2024/03/23 09:22:54;;;;;;;12.20;3.43;;;22.10;58.20;;;;;;5072359;28;21029;-81
2024/03/23 09:25:20;;;;;;;9.73;3.00;;;22.00;56.90;;;;;;5073688;28;20456;-86
2024/03/23 09:27:47;;;;;;;9.43;4.30;;;22.00;56.60;;;;;;5072034;28;20448;-86
2024/03/23 09:30:13;;;;;;;6.57;3.53;;;21.90;56.30;;;;;;5072243;28;20556;-83
2024/03/23 09:32:42;;;;;;;11.20;3.70;;;21.90;56.50;;;;;;5071348;28;20436;-85
2024/03/23 09:35:08;;;;;;;8.87;2.70;;;21.90;57.10;;;;;;5072578;28;20442;-84
2024/03/23 09:37:35;;;;;;;8.50;2.70;;;21.90;56.80;;;;;;5071895;28;20956;-84
2024/03/23 09:40:01;;;;;;;7.33;3.30;;;22.00;57.90;;;;;;5071960;28;20618;-84
2024/03/23 09:42:28;;;;;;;6.97;3.00;;;;;;;;;;5072062;28;20527;-85
2024/03/23 09:44:57;;;;;;;8.33;3.30;;;21.90;56.20;;;;;;5072909;28;20309;-92
2024/03/23 09:47:25;;;;;;;6.37;3.03;;;21.90;56.20;;;;;;5073280;28;20523;-90
2024/03/23 09:49:52;;;;;;;7.60;3.47;;;21.90;55.30;;;;;;5074086;28;20444;-89
2024/03/23 09:52:19;;;;;;;6.00;2.83;;;22.00;55.50;;;;;;5074511;28;20477;-89
2024/03/23 09:54:45;;;;;;;6.70;2.80;;;21.90;54.60;;;;;;5075241;28;20441;-91
2024/03/23 09:57:12;;;;;;;4.83;2.30;;;21.80;54.40;;;;;;5074802;28;20809;-84
2024/03/23 09:59:38;;;;;;;6.20;2.53;;;21.80;55.10;;;;;;5075404;28;20587;-92
2024/03/23 10:02:06;;;;;;;13.80;2.40;;;21.80;54.70;;;;;;5075917;28;20506;-92
2024/03/23 10:04:38;;;;;;;8.70;2.57;;;21.80;53.90;;;;;;5075770;28;20448;-94
2024/03/23 10:07:17;;;;;;;8.33;3.10;;;21.70;53.40;;;;;;5075896;28;20433;-93
2024/03/23 10:09:43;;;;;;;13.10;2.70;;;21.70;52.90;;;;;;5074965;28;20429;-92
2024/03/23 10:12:12;;;;;;;7.20;2.40;;;21.60;52.70;;;;;;5075237;28;20443;-92
2024/03/23 10:14:38;;;;;;;6.90;2.30;;;21.60;52.70;;;;;;5075632;28;20217;-91
2024/03/23 10:17:17;;;;;;;11.00;4.33;;;21.60;52.80;;;;;;5072977;28;20480;-84
2024/03/23 10:19:43;;;;;;;19.00;3.40;;;21.70;53.50;;;;;;5072475;28;20513;-86
2024/03/23 10:22:14;;;;;;;7.33;2.60;;;21.50;52.90;;;;;;5073420;28;20508;-85
2024/03/23 10:24:42;;;;;;;10.33;2.90;;;21.50;52.70;;;;;;5073149;28;20451;-83
2024/03/23 10:27:08;;;;;;;7.13;2.53;;;21.50;53.10;;;;;;5075008;28;20451;-85
2024/03/23 10:29:34;;;;;;;7.10;2.40;;;21.60;53.10;;;;;;5085536;28;20458;-81
2024/03/23 10:32:11;;;;;;;13.47;2.80;;;21.60;53.30;;;;;;5076753;28;20433;-84
2024/03/23 10:34:37;;;;;;;12.37;2.47;;;21.60;54.00;;;;;;5073555;28;20190;-83
2024/03/23 10:37:05;;;;;;;9.30;3.10;;;21.60;53.70;;;;;;5072790;28;20840;-86
2024/03/23 10:39:33;;;;;;;7.20;2.83;;;21.60;53.20;;;;;;5073882;28;20455;-84
2024/03/23 10:42:03;;;;;;;5.00;2.20;;;21.60;52.50;;;;;;5073920;28;20957;-87
2024/03/23 10:44:30;;;;;;;8.70;2.37;;;21.60;52.00;;;;;;5072911;28;20463;-86
2024/03/23 10:46:59;;;;;;;5.33;2.13;;;21.60;51.60;;;;;;5094202;28;20440;-85
2024/03/23 10:49:27;;;;;;;6.63;2.43;;;21.70;51.50;;;;;;5096797;28;20436;-85
2024/03/23 10:51:54;;;;;;;9.50;1.90;;;21.50;51.20;;;;;;5082239;28;20453;-86
2024/03/23 10:54:21;;;;;;;7.73;2.23;;;21.50;51.10;;;;;;5073681;28;20447;-91
2024/03/23 10:56:52;;;;;;;18.93;2.57;;;21.50;51.40;;;;;;5073797;28;20484;-86
2024/03/23 10:59:19;;;;;;;28.63;8.37;;;21.50;51.80;;;;;;5073816;28;20470;-86
2024/03/23 11:01:56;;;;;;;21.57;6.50;;;21.50;52.00;;;;;;5074614;28;20448;-92
2024/03/23 11:04:33;;;;;;;11.70;2.60;;;21.50;52.50;;;;;;5074513;28;20428;-84
2024/03/23 11:06:59;;;;;;;8.10;2.13;;;21.60;55.30;;;;;;5073978;28;20489;-85
2024/03/23 11:09:44;;;;;;;12.40;2.23;;;21.60;56.50;;;;;;5073556;28;20428;-84
2024/03/23 11:19:43;;;;;;;13.30;2.50;;;21.70;57.30;;;;;;4954709;29;20529;-91
2024/03/23 16:52:01;;;;;;;2.20;1.37;;;22.40;62.30;;;;;;5074712;28;20475;-84
2024/03/23 16:54:27;;;;;;;1.93;1.10;;;22.40;62.50;;;;;;5077243;28;20443;-92
2024/03/23 16:56:54;;;;;;;1.90;0.93;;;22.40;62.70;;;;;;5076869;28;20871;-91
2024/03/23 16:59:21;;;;;;;4.47;1.10;;;22.50;62.80;;;;;;5076520;28;20540;-91
2024/03/23 17:02:08;;;;;;;1.87;1.03;;;22.40;62.70;;;;;;5076535;28;20569;-85
